This is the latest recevied weather packets stored in our database for station/object N0NAI-13. If no packets are shown the sender has not sent any weather packets the latest 10 day(s).
| Time | Temp. | Humidity | Pressure | Rain* | Wind** | Luminosity | Snow |
|---|---|---|---|---|---|---|---|
| 1778243133 | 5° C | 64% | 1011.9 hPa | 0 mm | - | - | - |
| 1778242518 | 3.33° C | 69% | 1011.8 hPa | 0 mm | - | - | - |
| 1778241921 | 2.22° C | 72% | 1011.7 hPa | 0 mm | - | - | - |
| 1778241324 | 1.11° C | 78% | 1011.7 hPa | 0 mm | - | - | - |
| 1778240727 | 0.56° C | 83% | 1011.7 hPa | 0 mm | - | - | - |
| 1778240130 | -0.56° C | 88% | 1011.7 hPa | 0 mm | - | - | - |
| 1778239533 | -1.11° C | 90% | 1011.7 hPa | 0 mm | - | - | - |
| 1778238917 | -1.11° C | 91% | 1011.6 hPa | 0 mm | - | - | - |
| 1778238320 | -1.11° C | 91% | 1011.7 hPa | 0 mm | - | - | - |
| 1778237723 | -1.11° C | 91% | 1011.6 hPa | 0 mm | - | - | - |
| 1778237126 | -1.11° C | 91% | 1011.6 hPa | 0 mm | - | - | - |
| 1778236529 | -1.67° C | 91% | 1011.7 hPa | 0 mm | - | - | - |
| 1778235926 | -1.67° C | 92% | 1011.7 hPa | 0 mm | - | - | - |
| 1778235317 | -1.67° C | 92% | 1011.8 hPa | 0 mm | - | - | - |
| 1778234720 | -2.22° C | 92% | 1011.9 hPa | 0 mm | - | - | - |
| 1778234117 | -2.22° C | 92% | 1011.9 hPa | 0 mm | - | - | - |
| 1778233520 | -2.22° C | 92% | 1011.9 hPa | 0 mm | - | - | - |
| 1778232923 | -2.22° C | 92% | 1011.9 hPa | 0 mm | - | - | - |
| 1778232326 | -1.67° C | 91% | 1011.9 hPa | 0 mm | - | - | - |
| 1778231729 | -1.67° C | 91% | 1011.9 hPa | 0 mm | - | - | - |
| 1778231132 | -1.67° C | 90% | 1012.1 hPa | 0 mm | - | - | - |
| 1778230517 | -1.67° C | 90% | 1012.2 hPa | 0 mm | - | - | - |
| 1778229920 | -1.67° C | 90% | 1012.3 hPa | 0 mm | - | - | - |
| 1778229323 | -1.67° C | 90% | 1012.4 hPa | 0 mm | - | - | - |
| 1778228725 | -1.11° C | 90% | 1012.4 hPa | 0 mm | - | - | - |
* Rain latest hour (hover to see other rain measurements)
** Current wind speed in m/s (hover to see current wind gust speed)